Flight Track Log - Related Links

Times and Time Zones

All times are in EDT time to prevent confusion due to time zone crossing. See the SWA1202 flight status page for this flight to view local times or setup timezone preferences in your user account.

Time Position Orientation Groundspeed Altitude Reporting Facility
EDT Latitude Longitude Course Direction KTS MPH feet Rate Location/Type
Fri 06:20:42 PM 33.9439 -118.4597 233° Southwest 193 222 1,600  Level Los Angeles Center
Fri 06:21:44 PM 33.9361 -118.5353 263° West 229 264 3,800 2,880 Climbing Los Angeles Center
Fri 06:22:47 PM 33.9261 -118.6361 263° West 279 321 7,600 3,216 Climbing Los Angeles Center
Fri 06:23:49 PM 33.9169 -118.7364 264° West 305 351 10,500 2,565 Climbing Los Angeles Center
Fri 06:24:51 PM 33.9067 -118.8567 264° West 353 406 12,900 2,032 Climbing Los Angeles Center
Fri 06:25:53 PM 33.9008 -118.9814 267° West 378 435 14,700 2,177 Climbing Los Angeles Center
Fri 06:26:55 PM 33.9667 -119.0711 312° West 363 418 17,400 2,468 Climbing Los Angeles Center
Fri 06:27:57 PM 34.0389 -119.1639 313° West 378 435 19,800 2,226 Climbing Los Angeles Center
Fri 06:28:59 PM 34.1122 -119.2583 313° West 384 442 22,000 2,274 Climbing Los Angeles Center
Fri 06:30:01 PM 34.2006 -119.3753 312° West 394 453 24,500 2,032 Climbing Los Angeles Center
Fri 06:31:03 PM 34.2781 -119.4744 313° West 405 466 26,200 1,694 Climbing Los Angeles Center
Fri 06:32:05 PM 34.3583 -119.5775 313° West 419 482 28,000 1,984 Climbing Los Angeles Center
Fri 06:33:07 PM 34.4364 -119.6767 314° West 413 475 30,300 1,872 Climbing Los Angeles Center
Fri 06:34:10 PM 34.5117 -119.7769 312° West 404 465 31,900 1,632 Climbing Los Angeles Center
Fri 06:35:12 PM 34.6067 -119.8519 327° Northwest 402 463 33,700 1,452 Climbing Los Angeles Center
Fri 06:36:14 PM 34.7158 -119.9414 326° Northwest 392 451 34,900 1,113 Climbing Los Angeles Center
Fri 06:37:16 PM 34.8097 -120.0183 326° Northwest 402 463 36,000 532 Climbing Los Angeles Center
Fri 06:38:18 PM 34.9050 -120.0983 325° Northwest 413 475 36,000  Level Los Angeles Center
Fri 06:39:20 PM 35.0031 -120.1781 326° Northwest 424 488 36,000  Level Los Angeles Center
Fri 06:40:22 PM 35.1003 -120.2617 325° Northwest 427 491 36,000  Level Los Angeles Center
Fri 06:41:24 PM 35.2147 -120.3567 326° Northwest 423 487 36,000  Level Los Angeles Center
Fri 06:42:26 PM 35.3106 -120.4375 325° Northwest 422 486 36,000  Level Los Angeles Center
Fri 06:43:28 PM 35.4075 -120.5236 324° Northwest 433 498 36,000 -188 Level Los Angeles Center
Fri 06:44:02 PM 35.4561 -120.5628 327° Northwest 427 491 35,700 -813 Descending Oakland Center
Fri 06:45:04 PM 35.5531 -120.6442 326° Northwest 420 483 34,700 -1,073 Descending Oakland Center
Fri 06:46:05 PM 35.6692 -120.7431 325° Northwest 422 486 33,500 -1,024 Descending Oakland Center
Fri 06:47:07 PM 35.7664 -120.8233 326° Northwest 421 484 32,600 -927 Descending Oakland Center
Fri 06:48:08 PM 35.8625 -120.9075 325° Northwest 424 488 31,600 -927 Descending Oakland Center
Fri 06:49:10 PM 35.9597 -120.9906 325° Northwest 426 490 30,700 -927 Descending Oakland Center
Fri 06:50:11 PM 36.0581 -121.0744 325° Northwest 428 493 29,700 -1,902 Descending Oakland Center
Fri 06:51:13 PM 36.1564 -121.1611 325° Northwest 433 498 26,800 -2,952 Descending Oakland Center
Fri 06:52:15 PM 36.2558 -121.2472 325° Northwest 436 502 23,600 -2,439 Descending Oakland Center
Fri 06:53:16 PM 36.3519 -121.3297 325° Northwest 422 486 21,800 -1,805 Descending Oakland Center
Fri 06:54:18 PM 36.4675 -121.4297 325° Northwest 421 484 19,900 -2,419 Descending Oakland Center
Fri 06:55:20 PM 36.5622 -121.5117 325° Northwest 417 480 16,800 -2,732 Descending Oakland Center
Fri 06:56:21 PM 36.6508 -121.5911 324° Northwest 392 451 14,300 -2,878 Descending Oakland Center
Fri 06:57:23 PM 36.7547 -121.5961 358° North 373 429 10,900 -2,129 Descending Oakland Center
Fri 06:58:25 PM 36.8483 -121.5833 North 368 423 9,900 -1,366 Descending Oakland Center
Fri 06:59:26 PM 36.9461 -121.5781 North 312 359 8,100 -976 Descending Oakland Center
Fri 07:00:28 PM 37.0183 -121.6239 333° Northwest 272 313 7,900 -1,220 Descending Oakland Center
Fri 07:01:29 PM 37.0750 -121.6600 333° Northwest 254 292 5,600 -1,463 Descending Oakland Center
Fri 07:02:31 PM 37.1425 -121.7017 334° Northwest 267 307 4,900 -726 Descending Oakland Center
Fri 07:03:33 PM 37.1953 -121.7442 327° Northwest 246 283 4,100 -878 Descending Oakland Center
Fri 07:04:34 PM 37.2414 -121.7983 317° Northwest 233 268 3,100 -1,024 Descending Oakland Center
Fri 07:05:36 PM 37.2828 -121.8431 319° Northwest 218 251 2,000 -976 Descending Oakland Center
Fri 07:06:37 PM 37.3183 -121.8822 319° Northwest 168 193 1,100 -829 Descending Oakland Center
Fri 07:07:39 PM 37.3472 -121.9144 318° Northwest 149 171 300 -774 Descending Oakland Center
Fri 07:09:00 PM 37.3500 -121.9167 North  Level FlightAware Approximate
Fri 07:16:00 PM 37.3627 -121.9291 North  Level Estimated
Fri 07:17:00 PM 37.3627 -121.9291 North  Level Estimated

Login

Don't have an account? Register now (free) for customized features, flight alerts, and more!